Tucson, AZ (85749)

10:50 AM MST on December 10, 2016 (GMT -0700)
Saguaro Hills Estates | | Change Station

Elev 2765 ft 32.30 °N, 110.76 °W | Updated 11 seconds ago

Clear
Clear
63.7 °F
Feels Like 63.7 °F
N
3.0
Wind Variable Wind from WSW
Gusts 3.0 mph

Today
High -- | Low -- °F
--% Chance of Precip.
Yesterday
High -- | Low -- °F
Precip. -- in
Pressure 30.13 in
Visibility 10.0 miles
Clouds Clear
Dew Point 37 °F
Humidity 37%
Rainfall 0.00 in
Snow Depth Not available.
7:13 AM 5:18 PM
Waxing Gibbous, 85% visible
METAR KDMA 101658Z AUTO 15003KT 10SM CLR 16/00 A3018 RMK AO2 SLP203 T01640000 CHINO RWY30 $
Pressure 30.13 in
Visibility 10.0 miles
Clouds Clear
Dew Point 37 °F
Humidity 37%
Rainfall 0.00 in
Snow Depth Not available.
7:13 AM 5:18 PM
Waxing Gibbous, 85% visible
METAR KDMA 101658Z AUTO 15003KT 10SM CLR 16/00 A3018 RMK AO2 SLP203 T01640000 CHINO RWY30 $

10-Day Weather Forecast

Almanac

Astronomy

Dec. 10, 2016 Rise Set
Actual Time
Civil Twilight
Nautical Twilight
Astronomical Twilight
Moon
Length of Visible Light
Length of Day
Tomorrow will be .
, % of the Moon is Illuminated

Today's Extremes

State Highs State Lows

Community

WunderPhotos

Upload Photos

1,956,591 photos uploaded!

WunderBlog® & News

Nearby

Air Quality

  Air Quality AQ Index Pollutant
Not available.

Snow Depth

Station Depth Elevation

Earthquake Activity

City Distance Mag. Time & Date
Minimum magnitude displayed is 2.5.

Coastal Water Temperatures

Place Temperature

Stations

Nearby Weather Stations

Station Location Temp. Windchill Dew Point Humidity Wind Precip. Elev Updated Type
                   

Watches & Warnings

There are currently no watches in effect.